Time;durP1;ratioP1;P1;durP2;ratioP2;P2;SDS_P1;SDS_P2;PMS_P1;PMS_P2;Temp;Humidity;BMP_temperature;BMP_pressure;BME280_temperature;BME280_humidity;BME280_pressure;Samples;Min_cycle;Max_cycle;Signal;HPM_P1;HPM_P2
2022/01/18 00:00:23;;;;;;;35.00;24.63;;;;;;;3.63;81.14;100533.25;4083001;28;20230;-54
2022/01/18 00:02:25;;;;;;;27.70;23.75;;;;;;;3.59;81.10;100542.69;4107734;28;20214;-53
2022/01/18 00:04:27;;;;;;;32.97;25.02;;;;;;;3.60;80.83;100541.69;4083518;28;20204;-51
2022/01/18 00:06:29;;;;;;;34.92;26.58;;;;;;;3.44;80.94;100536.13;4106885;28;20214;-55
2022/01/18 00:08:33;;;;;;;45.10;24.80;;;;;;;3.40;81.34;100533.91;4093432;28;20246;-53
2022/01/18 00:10:35;;;;;;;34.42;24.08;;;;;;;3.44;80.81;100535.28;4096697;28;20223;-54
2022/01/18 00:14:45;;;;;;;37.83;23.75;;;;;;;3.53;81.13;100535.19;4112971;28;20214;-53
2022/01/18 00:19:11;;;;;;;33.25;24.73;;;;;;;3.39;80.98;100546.56;4106382;28;20223;-52
2022/01/18 00:21:29;;;;;;;36.95;24.48;;;;;;;3.42;81.21;100543.56;4075684;28;20331;-52
2022/01/18 00:23:30;;;;;;;31.50;25.25;;;;;;;3.45;81.20;100539.69;4111934;28;20241;-52
2022/01/18 00:25:35;;;;;;;37.42;25.17;;;;;;;3.41;81.26;100539.13;4115971;28;20241;-53
2022/01/18 00:27:36;;;;;;;39.75;24.52;;;;;;;3.41;81.51;100541.00;4111052;28;20241;-53
2022/01/18 00:29:44;;;;;;;34.42;25.48;;;;;;;3.41;81.36;100543.72;4110314;28;20305;-53
2022/01/18 00:34:30;;;;;;;36.20;23.73;;;;;;;3.45;81.20;100554.06;4090166;28;20214;-56
2022/01/18 00:36:39;;;;;;;40.60;26.40;;;;;;;3.45;81.78;100554.06;4075618;28;20214;-55
2022/01/18 00:38:46;;;;;;;41.60;24.63;;;;;;;3.51;81.82;100561.56;4092232;28;20207;-52
2022/01/18 00:40:48;;;;;;;38.53;25.95;;;;;;;3.53;81.48;100562.25;4109630;28;20257;-53
2022/01/18 00:42:50;;;;;;;49.13;26.80;;;;;;;3.68;81.37;100555.28;4097498;28;20215;-53
2022/01/18 00:44:52;;;;;;;43.53;26.15;;;;;;;3.54;81.28;100555.84;4112622;28;20671;-52
2022/01/18 00:46:54;;;;;;;43.22;26.88;;;;;;;3.48;81.41;100551.03;4126089;28;20676;-54
2022/01/18 00:49:00;;;;;;;33.67;23.88;;;;;;;3.63;81.66;100557.63;4092954;28;20238;-52
2022/01/18 00:51:04;;;;;;;31.80;24.50;;;;;;;3.57;81.67;100563.66;4090664;28;20369;-55
2022/01/18 00:53:10;;;;;;;38.70;23.52;;;;;;;3.60;81.64;100552.50;4100751;28;20223;-54
2022/01/18 00:55:14;;;;;;;42.15;25.67;;;;;;;3.55;81.12;100554.81;4111373;28;20938;-53
2022/01/18 00:57:16;;;;;;;43.25;25.75;;;;;;;3.50;81.47;100562.59;4105294;28;20576;-55
2022/01/18 00:59:19;;;;;;;45.65;25.90;;;;;;;3.49;81.65;100554.59;4102058;28;20214;-52
2022/01/18 01:01:24;;;;;;;40.05;26.63;;;;;;;3.51;81.81;100558.88;4116498;28;20230;-53
2022/01/18 01:03:26;;;;;;;40.10;25.33;;;;;;;3.57;81.30;100568.22;4094788;28;20235;-52
2022/01/18 01:05:37;;;;;;;44.38;25.77;;;;;;;3.69;81.39;100562.41;4102797;28;20281;-55
2022/01/18 01:07:40;;;;;;;40.25;26.40;;;;;;;3.58;81.52;100567.19;4091395;28;20206;-53
2022/01/18 01:10:02;;;;;;;44.55;25.92;;;;;;;3.55;81.50;100559.41;4096206;28;20325;-54
2022/01/18 01:12:05;;;;;;;39.22;27.23;;;;;;;3.61;81.41;100573.16;4111308;28;20288;-55
2022/01/18 01:14:15;;;;;;;42.67;26.17;;;;;;;3.57;81.26;100568.22;4093131;28;20211;-55
2022/01/18 01:16:50;;;;;;;44.10;28.13;;;;;;;3.62;81.91;100576.72;4090810;28;20420;-54
2022/01/18 01:33:39;;;;;;;44.95;22.92;;;;;;;3.52;81.46;100565.09;4118389;28;20223;-53
2022/01/18 01:36:09;;;;;;;49.53;24.63;;;;;;;3.51;82.00;100569.69;4109657;28;20206;-55
2022/01/18 01:44:45;;;;;;;43.97;25.60;;;;;;;3.53;81.46;100573.06;4110131;28;20211;-52
2022/01/18 01:46:48;;;;;;;37.42;23.75;;;;;;;3.48;81.52;100575.41;4088360;28;20300;-55
2022/01/18 01:48:53;;;;;;;34.30;22.73;;;;;;;3.47;81.56;100572.88;4089801;28;20222;-53
2022/01/18 01:51:04;;;;;;;40.58;25.30;;;;;;;3.49;81.66;100576.25;4092404;28;20235;-52
2022/01/18 01:53:06;;;;;;;34.97;24.73;;;;;;;3.45;81.68;100575.72;4096379;28;20259;-52
2022/01/18 01:55:08;;;;;;;39.88;24.88;;;;;;;3.44;81.58;100582.13;4094949;28;20238;-54
2022/01/18 01:57:10;;;;;;;29.70;24.80;;;;;;;3.46;81.89;100576.59;4108664;28;20270;-52
2022/01/18 01:59:12;;;;;;;33.42;23.98;;;;;;;3.51;81.72;100585.06;4090977;28;20299;-52
2022/01/18 02:01:14;;;;;;;42.47;25.33;;;;;;;3.48;81.72;100579.97;4111879;28;20240;-55
2022/01/18 02:03:17;;;;;;;37.67;24.75;;;;;;;3.44;81.74;100582.13;4106460;28;20246;-52
2022/01/18 02:05:21;;;;;;;26.48;22.98;;;;;;;3.55;81.78;100581.88;4099997;28;20223;-53
2022/01/18 02:07:23;;;;;;;37.47;24.75;;;;;;;3.50;81.38;100577.94;4100627;28;21287;-53
2022/01/18 02:09:24;;;;;;;34.25;23.75;;;;;;;3.45;81.44;100575.72;4107365;28;20237;-51
2022/01/18 02:11:26;;;;;;;35.50;26.55;;;;;;;3.43;81.81;100566.91;4116504;28;20292;-53
2022/01/18 02:13:28;;;;;;;38.58;25.48;;;;;;;3.43;81.38;100566.03;4109933;28;20257;-55
2022/01/18 02:15:30;;;;;;;45.28;25.38;;;;;;;3.42;81.86;100559.81;4107255;28;20249;-54
2022/01/18 02:22:13;;;;;;;38.92;25.20;;;;;;;3.37;82.18;100556.69;4111314;28;20233;-53
2022/01/18 02:24:16;;;;;;;44.70;25.52;;;;;;;3.44;81.90;100556.91;4084151;28;21498;-55
2022/01/18 02:26:17;;;;;;;53.63;26.30;;;;;;;3.38;81.61;100553.00;4108160;28;20206;-52
2022/01/18 02:28:20;;;;;;;41.00;26.05;;;;;;;3.41;81.38;100546.41;4094542;28;20238;-55
2022/01/18 02:30:22;;;;;;;38.08;25.65;;;;;;;3.45;81.57;100548.66;4103810;28;20206;-56
2022/01/18 02:32:24;;;;;;;49.65;26.80;;;;;;;3.47;81.96;100541.22;4105046;28;20555;-54
2022/01/18 02:34:26;;;;;;;38.40;26.48;;;;;;;3.48;81.21;100547.50;4105782;28;20249;-55
2022/01/18 02:36:29;;;;;;;57.38;29.48;;;;;;;3.39;82.02;100554.69;4106477;28;20229;-55
2022/01/18 02:38:31;;;;;;;38.85;26.70;;;;;;;3.37;82.16;100540.47;4090598;28;21468;-53
2022/01/18 02:40:33;;;;;;;39.85;24.92;;;;;;;3.46;82.13;100538.69;4112517;28;20380;-54
2022/01/18 02:42:44;;;;;;;41.60;25.88;;;;;;;3.41;81.58;100538.31;4102465;28;20234;-55
2022/01/18 02:44:46;;;;;;;43.70;25.63;;;;;;;3.38;81.88;100544.88;4103137;28;20808;-53
2022/01/18 02:46:48;;;;;;;41.38;24.40;;;;;;;3.45;81.84;100545.94;4096994;28;20627;-53
2022/01/18 02:48:50;;;;;;;39.92;24.90;;;;;;;3.39;82.05;100549.28;4118294;28;20210;-54
2022/01/18 02:50:51;;;;;;;38.97;24.00;;;;;;;3.40;81.76;100545.56;4092541;28;20235;-53
2022/01/18 02:52:53;;;;;;;57.70;26.88;;;;;;;3.41;82.05;100546.41;4102487;28;20252;-52
2022/01/18 02:54:55;;;;;;;50.58;26.88;;;;;;;3.39;81.59;100554.69;4078472;28;20298;-54
2022/01/18 02:57:00;;;;;;;43.45;24.52;;;;;;;3.35;82.00;100547.88;4097400;28;20215;-53
2022/01/18 02:59:31;;;;;;;40.75;24.70;;;;;;;3.37;82.20;100551.28;4077234;28;20211;-54
2022/01/18 03:03:47;;;;;;;51.55;27.35;;;;;;;3.39;81.60;100553.81;4112174;28;20214;-53
2022/01/18 03:05:48;;;;;;;35.05;25.52;;;;;;;3.38;81.69;100555.69;4094336;28;20798;-54
2022/01/18 03:07:50;;;;;;;43.50;25.17;;;;;;;3.36;81.64;100549.59;4077048;28;20674;-54
2022/01/18 03:09:52;;;;;;;36.17;24.92;;;;;;;3.37;82.05;100556.69;4110929;28;21275;-54
2022/01/18 03:11:54;;;;;;;44.88;26.27;;;;;;;3.40;82.00;100560.97;4114890;28;20233;-52
2022/01/18 03:13:56;;;;;;;36.80;24.55;;;;;;;3.38;81.96;100562.94;4107000;28;20222;-53
2022/01/18 03:15:57;;;;;;;42.72;26.23;;;;;;;3.37;81.79;100559.41;4094288;28;20214;-55
2022/01/18 03:18:03;;;;;;;50.30;27.10;;;;;;;3.35;82.10;100555.97;4112536;28;22203;-54
2022/01/18 03:20:06;;;;;;;47.95;26.17;;;;;;;3.34;81.88;100567.00;4080162;28;20223;-55
2022/01/18 03:22:08;;;;;;;42.00;24.95;;;;;;;3.35;81.83;100568.69;4092347;28;20637;-55
2022/01/18 03:24:32;;;;;;;37.70;24.15;;;;;;;3.35;81.95;100576.81;4095262;28;20203;-52
2022/01/18 03:28:03;;;;;;;41.97;26.30;;;;;;;3.29;81.90;100563.88;4091764;28;20222;-52
2022/01/18 03:28:53;;;;;;;46.35;27.27;;;;;;;3.30;82.10;100568.28;4113488;28;20245;-53
2022/01/18 03:30:58;;;;;;;48.60;27.17;;;;;;;3.29;81.87;100569.28;4108117;28;20972;-52
2022/01/18 03:33:01;;;;;;;48.30;26.42;;;;;;;3.29;82.32;100572.00;4093567;28;22187;-54
2022/01/18 03:35:04;;;;;;;50.80;27.35;;;;;;;3.30;82.44;100566.44;4089560;28;20569;-55
2022/01/18 03:37:06;;;;;;;40.78;25.70;;;;;;;3.30;81.78;100563.75;4089322;28;20207;-53
2022/01/18 03:39:08;;;;;;;47.35;24.48;;;;;;;3.24;82.08;100563.47;4092506;28;20214;-53
2022/01/18 03:41:09;;;;;;;37.08;24.75;;;;;;;3.23;81.80;100562.66;4094575;28;20278;-55
2022/01/18 03:43:13;;;;;;;40.40;25.85;;;;;;;3.22;82.31;100560.97;4092152;28;20238;-54
2022/01/18 03:45:17;;;;;;;51.70;25.08;;;;;;;3.22;82.16;100557.38;4094670;28;20210;-52
2022/01/18 03:47:19;;;;;;;44.53;25.83;;;;;;;3.20;82.52;100559.41;4100928;28;20245;-54
2022/01/18 03:49:27;;;;;;;64.13;25.77;;;;;;;3.25;82.34;100563.34;4091280;28;20210;-54
2022/01/18 03:51:28;;;;;;;44.35;25.45;;;;;;;3.17;82.64;100560.56;4099181;28;20234;-52
2022/01/18 03:53:30;;;;;;;47.35;26.00;;;;;;;3.14;82.66;100560.84;4100285;28;20222;-53
2022/01/18 03:55:32;;;;;;;45.70;25.13;;;;;;;3.17;82.08;100560.56;4112244;28;20568;-53
2022/01/18 03:57:34;;;;;;;45.75;25.88;;;;;;;3.17;82.47;100567.81;4109533;28;20309;-55
2022/01/18 03:59:35;;;;;;;45.75;25.58;;;;;;;3.17;82.27;100554.28;4116663;28;20206;-55
2022/01/18 04:01:37;;;;;;;46.38;24.35;;;;;;;3.17;82.27;100560.56;4110812;28;20741;-52
2022/01/18 04:03:39;;;;;;;32.97;22.77;;;;;;;3.18;82.32;100564.09;4093570;28;20243;-54
2022/01/18 04:05:41;;;;;;;40.80;22.23;;;;;;;3.17;82.56;100563.25;4093074;28;20677;-53
2022/01/18 04:07:43;;;;;;;42.85;26.75;;;;;;;3.30;82.67;100577.28;4094605;28;20210;-54
2022/01/18 04:09:45;;;;;;;46.95;24.75;;;;;;;3.21;82.10;100575.47;4105478;28;20269;-53
2022/01/18 04:11:48;;;;;;;38.45;25.05;;;;;;;3.20;82.49;100568.34;4093901;28;20230;-52
2022/01/18 04:13:50;;;;;;;47.03;24.73;;;;;;;3.38;82.34;100571.94;4095068;28;20227;-54
2022/01/18 04:15:54;;;;;;;35.83;24.67;;;;;;;3.34;81.69;100575.09;4090262;28;20219;-53
2022/01/18 04:27:01;;;;;;;45.40;25.52;;;;;;;3.23;82.03;100569.91;4095527;28;20203;-54
2022/01/18 04:29:03;;;;;;;43.85;25.25;;;;;;;3.23;82.29;100569.91;4114094;28;22446;-55
2022/01/18 04:31:06;;;;;;;46.38;24.08;;;;;;;3.36;81.91;100579.34;4106160;28;21091;-54
2022/01/18 04:33:07;;;;;;;46.10;23.42;;;;;;;3.31;82.04;100568.13;4115708;28;20304;-55
2022/01/18 04:35:09;;;;;;;39.65;25.83;;;;;;;3.29;81.87;100564.75;4090978;28;20245;-55
2022/01/18 04:37:11;;;;;;;47.03;26.55;;;;;;;3.36;81.83;100571.25;4124411;28;20206;-53
2022/01/18 04:39:13;;;;;;;39.05;24.95;;;;;;;3.36;81.88;100573.94;4112198;28;20248;-55
2022/01/18 04:41:18;;;;;;;44.85;24.88;;;;;;;3.32;81.88;100564.44;4092850;28;21435;-55
2022/01/18 04:43:38;;;;;;;46.90;26.25;;;;;;;3.31;82.12;100576.25;4094848;28;20230;-55
2022/01/18 04:50:21;;;;;;;44.63;23.67;;;;;;;3.34;82.14;100570.53;4092413;28;20238;-54
2022/01/18 04:52:23;;;;;;;40.63;24.63;;;;;;;3.29;81.87;100575.56;4075701;28;20262;-55
2022/01/18 04:54:29;;;;;;;47.85;25.30;;;;;;;3.36;81.81;100581.19;4089855;28;20259;-52
2022/01/18 04:58:36;;;;;;;53.40;26.27;;;;;;;3.30;82.00;100571.84;4090320;28;20231;-56
2022/01/18 05:00:38;;;;;;;46.85;26.23;;;;;;;3.29;82.05;100569.28;4089287;28;21611;-53
2022/01/18 05:02:42;;;;;;;51.42;27.98;;;;;;;3.42;81.97;100570.63;4074546;28;21019;-55
2022/01/18 05:04:44;;;;;;;39.13;25.40;;;;;;;3.39;81.15;100576.34;4095326;28;20220;-55
2022/01/18 05:06:47;;;;;;;63.67;28.90;;;;;;;3.32;82.27;100579.78;4092179;28;20264;-56
2022/01/18 05:08:49;;;;;;;49.72;24.90;;;;;;;3.30;82.07;100582.69;4089880;28;20207;-55
2022/01/18 05:10:54;;;;;;;44.70;24.25;;;;;;;3.29;81.74;100586.38;4073949;28;20318;-54
2022/01/18 05:12:59;;;;;;;39.00;23.05;;;;;;;3.28;81.75;100589.25;4095917;28;20207;-55
2022/01/18 05:15:08;;;;;;;45.80;25.70;;;;;;;3.28;82.12;100594.66;4093707;28;20581;-54
2022/01/18 05:17:34;;;;;;;37.30;22.65;;;;;;;3.27;81.98;100593.78;4111771;28;20249;-53
2022/01/18 05:19:55;;;;;;;41.13;24.35;;;;;;;3.28;82.01;100595.47;4119694;28;20295;-54
2022/01/18 05:24:07;;;;;;;28.08;21.23;;;;;;;3.29;82.09;100602.63;4107651;28;20320;-53
2022/01/18 05:26:09;;;;;;;32.05;22.70;;;;;;;3.30;81.70;100601.63;4109267;28;20237;-55
2022/01/18 05:28:11;;;;;;;34.72;23.75;;;;;;;3.29;82.11;100597.22;4106550;28;20535;-56
2022/01/18 05:30:13;;;;;;;43.80;26.30;;;;;;;3.27;82.07;100603.78;4089875;28;20333;-55
2022/01/18 05:32:27;;;;;;;45.72;24.17;;;;;;;3.27;82.10;100610.03;4108606;28;20743;-53
2022/01/18 05:34:28;;;;;;;36.95;24.52;;;;;;;3.20;81.93;100608.94;4110709;28;20308;-54
2022/01/18 05:36:31;;;;;;;40.53;24.42;;;;;;;3.21;81.74;100605.22;4091204;28;20573;-55
2022/01/18 05:38:33;;;;;;;34.30;24.13;;;;;;;3.23;82.27;100608.63;4095651;28;20542;-54
2022/01/18 05:40:36;;;;;;;34.25;24.60;;;;;;;3.24;82.01;100604.06;4090327;28;20580;-55
2022/01/18 05:42:37;;;;;;;49.78;24.30;;;;;;;3.22;82.20;100606.94;4092737;28;20214;-53
2022/01/18 05:44:39;;;;;;;43.60;24.77;;;;;;;3.18;82.30;100610.06;4096531;28;20207;-52
2022/01/18 05:46:42;;;;;;;34.88;23.58;;;;;;;3.19;82.26;100606.38;4110295;28;20210;-52
2022/01/18 05:48:44;;;;;;;39.80;23.95;;;;;;;3.18;82.10;100605.53;4108312;28;21086;-52
2022/01/18 05:50:45;;;;;;;37.80;24.17;;;;;;;3.20;82.04;100614.34;4094997;28;20234;-55
2022/01/18 05:52:47;;;;;;;34.90;21.52;;;;;;;3.21;82.38;100610.63;4107656;28;20688;-55
2022/01/18 05:54:49;;;;;;;31.75;22.70;;;;;;;3.23;81.94;100613.19;4094931;28;20276;-52
2022/01/18 05:56:51;;;;;;;39.17;22.63;;;;;;;3.27;82.32;100620.84;4092888;28;20215;-54
2022/01/18 05:58:55;;;;;;;31.02;21.40;;;;;;;3.28;81.95;100621.69;4109195;28;20249;-53
2022/01/18 06:00:57;;;;;;;30.90;21.55;;;;;;;3.31;82.08;100616.84;4099278;28;20281;-53
2022/01/18 06:03:02;;;;;;;33.22;22.25;;;;;;;3.32;82.05;100615.81;4100607;28;20211;-52
2022/01/18 06:07:26;;;;;;;27.58;21.35;;;;;;;3.27;81.31;100620.84;4121024;28;20646;-55
2022/01/18 06:09:28;;;;;;;43.05;25.00;;;;;;;3.28;81.95;100627.13;4118374;28;20892;-55
2022/01/18 06:11:30;;;;;;;36.13;25.65;;;;;;;3.29;81.98;100624.25;4121968;28;20752;-54
2022/01/18 06:13:32;;;;;;;35.53;24.98;;;;;;;3.30;81.49;100635.91;4106047;28;20219;-54
2022/01/18 06:15:35;;;;;;;38.00;25.85;;;;;;;3.31;81.92;100624.97;4108052;28;20246;-54
2022/01/18 06:17:38;;;;;;;41.05;25.48;;;;;;;3.29;81.46;100623.41;4122633;28;20268;-52
2022/01/18 06:19:40;;;;;;;47.28;26.08;;;;;;;3.29;81.51;100629.69;4105851;28;20290;-54
2022/01/18 06:21:41;;;;;;;50.92;27.20;;;;;;;3.29;81.31;100624.25;4107290;28;20246;-55
2022/01/18 06:23:43;;;;;;;50.85;25.95;;;;;;;3.31;81.91;100627.66;4120988;28;20680;-53
2022/01/18 06:25:45;;;;;;;39.63;24.60;;;;;;;3.32;81.50;100631.19;4098443;28;20591;-53
2022/01/18 06:27:50;;;;;;;30.25;23.80;;;;;;;3.29;81.98;100635.09;4102041;28;20219;-55
2022/01/18 06:29:52;;;;;;;31.10;21.73;;;;;;;3.27;81.39;100641.66;4103934;28;20209;-55
2022/01/18 06:31:53;;;;;;;34.25;21.38;;;;;;;3.27;81.75;100636.25;4118834;28;20675;-53
2022/01/18 06:33:55;;;;;;;28.42;21.80;;;;;;;3.31;81.42;100638.47;4121210;28;20233;-52
2022/01/18 06:35:57;;;;;;;35.10;20.13;;;;;;;3.27;81.66;100645.19;4120485;28;20571;-55
2022/01/18 06:37:59;;;;;;;24.13;20.30;;;;;;;3.25;81.30;100647.19;4106185;28;20301;-52
2022/01/18 06:40:03;;;;;;;27.02;19.73;;;;;;;3.25;81.67;100654.44;4118550;28;20261;-54
2022/01/18 06:42:05;;;;;;;31.00;21.13;;;;;;;3.28;81.85;100649.59;4109956;28;20238;-53
2022/01/18 06:44:07;;;;;;;35.22;20.73;;;;;;;3.23;81.49;100645.66;4112920;28;20982;-52
2022/01/18 06:46:09;;;;;;;33.33;20.83;;;;;;;3.28;81.29;100649.59;4123063;28;20473;-54
2022/01/18 06:48:11;;;;;;;28.40;21.52;;;;;;;3.21;81.50;100647.66;4104401;28;20752;-54
2022/01/18 06:50:13;;;;;;;27.83;20.85;;;;;;;3.18;81.23;100653.34;4107328;28;20498;-55
2022/01/18 06:52:15;;;;;;;22.60;18.90;;;;;;;3.16;81.36;100661.66;4084849;28;20211;-54
2022/01/18 06:54:18;;;;;;;36.35;24.38;;;;;;;3.18;81.49;100654.22;4118860;28;20257;-52
2022/01/18 06:56:20;;;;;;;37.17;23.52;;;;;;;3.11;82.19;100647.72;4122313;28;20202;-55
2022/01/18 06:58:22;;;;;;;39.40;22.67;;;;;;;3.11;81.96;100657.66;4106217;28;20207;-54
2022/01/18 07:00:24;;;;;;;46.22;25.10;;;;;;;3.11;82.61;100661.25;4125215;28;20256;-52
2022/01/18 07:02:26;;;;;;;41.83;24.10;;;;;;;3.11;82.56;100663.94;4111412;28;20207;-53
2022/01/18 07:04:32;;;;;;;39.13;22.85;;;;;;;3.12;82.17;100659.38;4110846;28;20207;-51
2022/01/18 07:06:35;;;;;;;39.15;23.67;;;;;;;3.12;82.56;100664.78;4110892;28;20234;-52
2022/01/18 07:08:37;;;;;;;32.38;22.52;;;;;;;3.13;82.39;100667.34;4095166;28;20249;-52
2022/01/18 07:10:39;;;;;;;39.53;22.98;;;;;;;3.17;82.58;100666.03;4110310;28;20281;-54
2022/01/18 07:12:41;;;;;;;39.35;24.65;;;;;;;3.18;82.04;100665.03;4110308;28;20199;-53
2022/01/18 07:14:42;;;;;;;46.75;26.17;;;;;;;3.17;82.05;100663.34;4110504;28;20314;-54
2022/01/18 07:16:44;;;;;;;42.85;25.67;;;;;;;3.21;81.70;100670.13;4112031;28;20211;-54
2022/01/18 07:18:50;;;;;;;36.97;24.55;;;;;;;3.23;81.98;100668.16;4122829;28;20309;-53
2022/01/18 07:20:57;;;;;;;50.03;26.48;;;;;;;3.17;82.11;100673.28;4126763;28;20715;-54
2022/01/18 07:22:58;;;;;;;52.08;24.48;;;;;;;3.17;82.32;100679.56;4109720;28;20724;-53
2022/01/18 07:25:02;;;;;;;42.25;24.75;;;;;;;3.17;82.17;100684.97;4110998;28;20203;-53
2022/01/18 07:27:06;;;;;;;36.03;22.25;;;;;;;3.18;81.74;100680.41;4111233;28;20218;-52
2022/01/18 07:29:15;;;;;;;42.65;24.45;;;;;;;3.17;81.89;100684.97;4111658;28;20210;-54
2022/01/18 07:31:17;;;;;;;40.20;21.58;;;;;;;3.24;81.89;100679.81;4094030;28;20714;-54
2022/01/18 07:33:19;;;;;;;40.08;25.60;;;;;;;3.18;82.12;100683.97;4109190;28;20603;-53
2022/01/18 07:35:22;;;;;;;44.95;24.48;;;;;;;3.30;81.55;100680.06;4126633;28;20314;-53
2022/01/18 07:37:33;;;;;;;53.08;24.42;;;;;;;3.20;82.17;100681.97;4127403;28;21110;-53
2022/01/18 07:39:35;;;;;;;54.10;26.40;;;;;;;3.22;82.13;100684.53;4109782;28;20662;-53
2022/01/18 07:41:39;;;;;;;43.60;25.77;;;;;;;3.20;82.18;100684.66;4109766;28;21179;-53
2022/01/18 07:43:41;;;;;;;40.95;26.77;;;;;;;3.17;82.49;100684.97;4112052;28;20266;-52
2022/01/18 07:45:45;;;;;;;47.53;25.92;;;;;;;3.20;82.28;100679.25;4111398;28;20313;-53
2022/01/18 07:47:47;;;;;;;49.47;25.08;;;;;;;3.16;82.23;100683.28;4111610;28;20211;-52
2022/01/18 07:49:49;;;;;;;45.38;24.52;;;;;;;3.19;82.09;100687.50;4125806;28;20338;-52
2022/01/18 07:51:51;;;;;;;34.47;25.33;;;;;;;3.27;82.22;100682.22;4112261;28;20728;-52
2022/01/18 07:53:53;;;;;;;45.55;27.48;;;;;;;3.35;81.36;100683.16;4111232;28;20218;-52
2022/01/18 07:55:54;;;;;;;49.90;27.73;;;;;;;3.27;81.75;100680.34;4123373;28;20280;-53
2022/01/18 07:57:58;;;;;;;42.67;25.35;;;;;;;3.31;82.38;100683.59;4110364;28;20219;-52
2022/01/18 08:00:01;;;;;;;50.33;27.17;;;;;;;3.23;82.31;100678.09;4128806;28;20202;-53
2022/01/18 08:02:15;;;;;;;36.42;25.85;;;;;;;3.24;82.17;100680.66;4113544;28;20222;-54
2022/01/18 08:04:26;;;;;;;44.70;25.65;;;;;;;3.33;81.85;100676.22;4112787;28;20722;-53
2022/01/18 08:06:28;;;;;;;45.00;26.33;;;;;;;3.25;82.31;100673.38;4110347;28;20285;-53
2022/01/18 08:08:33;;;;;;;36.10;24.02;;;;;;;3.25;82.27;100673.38;4127076;28;20261;-52
2022/01/18 08:10:35;;;;;;;53.85;28.90;;;;;;;3.27;82.37;100674.94;4122884;28;20230;-54
2022/01/18 08:12:46;;;;;;;39.05;23.10;;;;;;;3.29;82.24;100678.38;4110073;28;20301;-53
2022/01/18 08:14:49;;;;;;;39.47;26.02;;;;;;;3.30;81.85;100680.06;4107981;28;20266;-54
2022/01/18 08:17:10;;;;;;;37.05;22.10;;;;;;;3.38;82.01;100684.72;4110600;28;20222;-53
2022/01/18 08:19:12;;;;;;;42.58;22.70;;;;;;;3.41;82.12;100682.53;4108723;28;20642;-53
2022/01/18 08:21:14;;;;;;;34.58;23.27;;;;;;;3.48;82.00;100680.09;4110833;28;20822;-52
2022/01/18 08:23:16;;;;;;;36.58;22.98;;;;;;;3.41;81.93;100676.31;4127423;28;20706;-52
2022/01/18 08:25:18;;;;;;;36.00;23.80;;;;;;;3.45;82.13;100683.09;4107458;28;20643;-53
2022/01/18 08:27:21;;;;;;;30.05;24.33;;;;;;;3.48;82.59;100678.22;4125023;28;20241;-52
2022/01/18 08:29:22;;;;;;;30.63;21.30;;;;;;;3.52;82.54;100685.06;4093173;28;20294;-52
2022/01/18 08:31:46;;;;;;;56.22;24.58;;;;;;;3.55;82.40;100695.56;4109904;28;20897;-53
2022/01/18 08:33:53;;;;;;;37.17;23.80;;;;;;;3.61;82.67;100689.53;4106201;28;20202;-53
2022/01/18 08:35:54;;;;;;;41.03;24.45;;;;;;;3.66;82.50;100687.22;4122914;28;20234;-54
2022/01/18 08:37:56;;;;;;;41.00;22.90;;;;;;;3.70;82.21;100691.34;4093845;28;20211;-53
2022/01/18 08:39:58;;;;;;;29.98;20.85;;;;;;;3.71;82.35;100690.34;4107019;28;20219;-52
2022/01/18 08:41:59;;;;;;;39.08;22.48;;;;;;;3.72;82.21;100696.59;4125278;28;20233;-53
2022/01/18 08:44:13;;;;;;;38.63;23.77;;;;;;;3.76;82.50;100698.00;4108637;28;20292;-53
2022/01/18 08:46:16;;;;;;;40.33;23.98;;;;;;;3.78;81.82;100704.97;4119968;28;20209;-52
2022/01/18 08:48:18;;;;;;;44.22;26.20;;;;;;;3.73;82.00;100699.16;4091762;28;20227;-52
2022/01/18 08:50:20;;;;;;;43.42;24.92;;;;;;;3.70;82.18;100704.88;4104997;28;20399;-52
2022/01/18 08:52:22;;;;;;;39.65;24.63;;;;;;;3.67;81.56;100702.47;4106554;28;20210;-55
2022/01/18 08:54:23;;;;;;;37.45;25.52;;;;;;;3.71;81.94;100693.03;4108369;28;20716;-53
2022/01/18 08:56:25;;;;;;;42.53;23.60;;;;;;;3.69;81.98;100703.19;4119232;28;20305;-53
2022/01/18 08:58:48;;;;;;;41.88;25.10;;;;;;;3.77;81.86;100699.69;4107982;28;20265;-52
2022/01/18 09:00:50;;;;;;;30.15;23.10;;;;;;;3.84;82.27;100698.94;4120319;28;21053;-55
2022/01/18 09:02:52;;;;;;;29.50;22.27;;;;;;;3.89;81.65;100701.19;4121533;28;20297;-55
2022/01/18 09:04:54;;;;;;;35.53;24.63;;;;;;;3.88;81.70;100704.91;4121447;28;20198;-53
2022/01/18 09:06:57;;;;;;;41.17;22.83;;;;;;;3.94;81.86;100696.16;4122991;28;20245;-52
2022/01/18 09:08:58;;;;;;;44.00;22.88;;;;;;;3.97;81.57;100701.25;4104939;28;20210;-53
2022/01/18 09:11:00;;;;;;;43.03;24.33;;;;;;;4.02;81.72;100704.34;4105262;28;20716;-52
2022/01/18 09:13:02;;;;;;;32.35;23.65;;;;;;;4.02;81.55;100710.63;4121677;28;20222;-53
2022/01/18 09:15:07;;;;;;;39.95;23.25;;;;;;;4.06;81.35;100709.31;4107709;28;20225;-55
2022/01/18 09:17:08;;;;;;;40.47;22.70;;;;;;;4.10;81.66;100708.00;4091974;28;20397;-56
2022/01/18 09:19:11;;;;;;;31.95;22.67;;;;;;;4.16;82.20;100712.78;4111973;28;20258;-51
2022/01/18 09:21:14;;;;;;;32.30;24.98;;;;;;;4.22;82.05;100723.00;4123998;28;20785;-55
2022/01/18 09:23:15;;;;;;;35.38;25.05;;;;;;;4.26;81.53;100723.56;4111152;28;20241;-52
2022/01/18 09:25:20;;;;;;;32.03;23.67;;;;;;;4.22;81.43;100722.16;4125243;28;20652;-54
2022/01/18 09:27:22;;;;;;;34.97;22.30;;;;;;;4.25;81.42;100722.69;4126558;28;20252;-51
2022/01/18 09:29:23;;;;;;;44.28;23.30;;;;;;;4.26;81.50;100720.84;4111599;28;20195;-52
2022/01/18 09:31:25;;;;;;;39.90;24.52;;;;;;;4.30;81.70;100720.38;4108709;28;20599;-52
2022/01/18 09:33:27;;;;;;;43.47;25.67;;;;;;;4.37;81.51;100716.03;4102277;28;20225;-52
2022/01/18 09:35:28;;;;;;;37.28;24.83;;;;;;;4.45;81.53;100728.78;4106564;28;20230;-53
2022/01/18 09:37:30;;;;;;;36.33;24.63;;;;;;;4.38;81.79;100725.00;4092368;28;20211;-54
2022/01/18 09:39:32;;;;;;;46.10;26.23;;;;;;;4.47;81.66;100727.59;4102878;28;20274;-55
2022/01/18 09:41:38;;;;;;;47.58;25.77;;;;;;;4.48;81.62;100720.34;4106142;28;20242;-52
2022/01/18 09:43:42;;;;;;;39.75;26.35;;;;;;;4.57;81.37;100724.81;4123451;28;20210;-53
2022/01/18 09:45:45;;;;;;;40.13;24.83;;;;;;;4.63;81.29;100727.75;4110572;28;22089;-52
2022/01/18 09:47:49;;;;;;;50.08;26.85;;;;;;;4.71;81.38;100735.94;4126800;28;20215;-54
2022/01/18 09:49:51;;;;;;;59.67;32.72;;;;;;;4.77;80.99;100740.72;4113485;28;20210;-53
2022/01/18 09:51:53;;;;;;;46.20;26.73;;;;;;;4.83;81.37;100740.09;4125686;28;20226;-53
2022/01/18 09:53:55;;;;;;;40.50;26.73;;;;;;;4.92;81.21;100732.84;4126936;28;20214;-54
2022/01/18 09:55:57;;;;;;;44.17;27.00;;;;;;;4.94;81.06;100726.25;4108664;28;20309;-53
2022/01/18 09:58:01;;;;;;;44.42;27.13;;;;;;;4.95;81.27;100729.81;4124928;28;20288;-53
2022/01/18 10:00:06;;;;;;;36.80;24.42;;;;;;;5.07;81.10;100733.97;4108021;28;20747;-54
2022/01/18 10:02:10;;;;;;;39.38;23.17;;;;;;;5.19;80.55;100730.81;4122408;28;20234;-52
2022/01/18 10:04:24;;;;;;;35.55;22.23;;;;;;;5.29;80.02;100732.38;4112621;28;20225;-52
2022/01/18 10:06:26;;;;;;;40.50;22.83;;;;;;;5.24;80.22;100726.59;4110020;28;20664;-51
2022/01/18 10:08:28;;;;;;;31.88;19.40;;;;;;;5.35;80.36;100720.06;4107132;28;20214;-54
2022/01/18 10:10:44;;;;;;;36.53;19.95;;;;;;;5.36;79.84;100730.72;4110664;28;20388;-53
2022/01/18 10:12:55;;;;;;;35.67;20.23;;;;;;;5.40;79.87;100729.41;4127365;28;20663;-53
2022/01/18 10:15:02;;;;;;;29.23;18.55;;;;;;;5.44;80.49;100732.63;4105645;28;20218;-54
2022/01/18 10:17:05;;;;;;;21.90;19.40;;;;;;;5.51;80.21;100736.41;4106509;28;20197;-53
2022/01/18 10:19:08;;;;;;;23.30;16.38;;;;;;;5.59;79.60;100734.56;4110563;28;20890;-53
2022/01/18 10:21:11;;;;;;;29.90;16.55;;;;;;;5.57;79.45;100733.03;4125407;28;20639;-56
2022/01/18 10:23:20;;;;;;;21.25;15.48;;;;;;;5.59;78.97;100726.41;4109170;28;20265;-52
2022/01/18 10:25:27;;;;;;;26.33;14.15;;;;;;;5.68;78.72;100724.56;4128467;28;20214;-52